Time;durP1;ratioP1;P1;durP2;ratioP2;P2;SDS_P1;SDS_P2;PMS_P1;PMS_P2;Temp;Humidity;BMP_temperature;BMP_pressure;BME280_temperature;BME280_humidity;BME280_pressure;Samples;Min_cycle;Max_cycle;Signal;HPM_P1;HPM_P2
2022/03/19 00:00:36;;;;;;;;;;;4.80;99.90;;;4.26;100.00;99333.22;5035423;28;19927;-82
2022/03/19 00:03:02;;;;;;;;;;;4.80;99.90;;;4.40;100.00;99334.38;5023031;28;20303;-83
2022/03/19 00:05:27;;;;;;;;;;;4.90;99.90;;;4.43;100.00;99336.16;5015054;28;19941;-83
2022/03/19 00:07:53;;;;;;;;;;;4.90;99.90;;;4.41;100.00;99337.84;5015662;28;19967;-82
2022/03/19 00:10:21;;;;;;;;;;;4.90;99.90;;;4.35;100.00;99324.69;5013083;28;20844;-82
2022/03/19 00:12:48;;;;;;;;;;;4.90;99.90;;;4.35;100.00;99341.25;5019008;28;19916;-82
2022/03/19 00:15:16;;;;;;;;;;;4.90;99.90;;;4.26;100.00;99333.22;5007300;28;19933;-83
2022/03/19 00:17:42;;;;;;;;;;;4.90;99.90;;;4.17;100.00;99336.53;5030953;28;19921;-82
2022/03/19 00:20:08;;;;;;;;;;;4.80;99.90;;;4.16;100.00;99337.41;5012847;28;20016;-82
2022/03/19 00:22:34;;;;;;;;;;;4.80;99.90;;;4.05;100.00;99330.19;5026330;28;19973;-82
2022/03/19 00:25:00;;;;;;;;;;;4.70;99.90;;;3.97;100.00;99320.47;5010216;28;19921;-83
2022/03/19 00:27:26;;;;;;;;;;;4.70;99.90;;;4.06;100.00;99334.59;5014614;28;19938;-82
2022/03/19 00:29:52;;;;;;;;;;;4.60;99.90;;;4.03;100.00;99326.69;5026061;28;19918;-83
2022/03/19 00:32:17;;;;;;;;;;;4.60;99.90;;;4.07;100.00;99318.03;5014875;28;19917;-83
2022/03/19 00:34:43;;;;;;;;;;;4.70;99.90;;;4.10;100.00;99319.00;5029221;28;19921;-82
2022/03/19 00:37:09;;;;;;;;;;;4.70;99.90;;;3.99;100.00;99326.59;5012898;28;19924;-83
2022/03/19 00:39:34;;;;;;;;;;;4.60;99.90;;;3.80;100.00;99309.72;4997614;28;20677;-83
2022/03/19 00:42:00;;;;;;;;;;;4.60;99.90;;;3.99;100.00;99316.16;4998106;28;19947;-83
2022/03/19 00:44:25;;;;;;;;;;;4.60;99.90;;;4.01;100.00;99322.28;4999578;28;19921;-83
2022/03/19 00:46:51;;;;;;;;;;;4.60;99.90;;;3.95;100.00;99321.31;5011761;28;19917;-82
2022/03/19 00:49:17;;;;;;;;;;;4.60;99.90;;;3.87;100.00;99305.47;5013607;28;20394;-82
2022/03/19 00:51:42;;;;;;;;;;;4.60;99.90;;;3.90;100.00;99295.09;5031326;28;19921;-82
2022/03/19 00:54:10;;;;;;;;;;;4.60;99.90;;;4.03;100.00;99300.56;5011143;28;20269;-82
2022/03/19 00:56:36;;;;;;;;;;;4.60;99.90;;;4.05;100.00;99314.53;5010287;28;19917;-83
2022/03/19 00:59:02;;;;;;;;;;;4.60;99.90;;;4.07;100.00;99315.44;4999571;28;19921;-82
2022/03/19 01:01:28;;;;;;;;;;;4.60;99.90;;;4.01;100.00;99300.53;5008013;28;19955;-83
2022/03/19 01:03:54;;;;;;;;;;;4.60;99.90;;;3.86;100.00;99284.56;5006235;28;19957;-83
2022/03/19 01:06:20;;;;;;;;;;;4.60;99.90;;;3.95;100.00;99308.25;5003011;28;19921;-82
2022/03/19 01:08:45;;;;;;;;;;;4.60;99.90;;;3.81;100.00;99305.34;5006777;28;19921;-82
2022/03/19 01:11:11;;;;;;;;;;;4.50;99.90;;;3.71;100.00;99295.56;5001786;28;20081;-82
2022/03/19 01:13:36;;;;;;;;;;;4.50;99.90;;;3.55;100.00;99274.38;5003718;28;19913;-83
2022/03/19 01:16:02;;;;;;;;;;;4.40;99.90;;;3.56;100.00;99290.91;5001641;28;19963;-82
2022/03/19 01:18:29;;;;;;;;;;;4.40;99.90;;;3.50;100.00;99283.84;5002474;28;20421;-83
2022/03/19 01:20:55;;;;;;;;;;;4.40;99.90;;;3.65;100.00;99305.88;4986645;28;20435;-82
2022/03/19 01:23:21;;;;;;;;;;;4.30;99.90;;;3.70;100.00;99302.53;5006148;28;20004;-82
2022/03/19 01:25:46;;;;;;;;;;;4.30;99.90;;;3.74;100.00;99298.25;5017641;28;19913;-82
2022/03/19 01:28:12;;;;;;;;;;;4.40;99.90;;;3.62;100.00;99298.88;5005556;28;20007;-83
2022/03/19 01:30:38;;;;;;;;;;;4.30;99.90;;;3.76;100.00;99307.00;5017745;28;20000;-82
2022/03/19 01:33:04;;;;;;;;;;;4.40;99.90;;;3.55;100.00;99281.31;5008261;28;19913;-82
2022/03/19 01:35:29;;;;;;;;;;;4.40;99.90;;;3.56;100.00;99289.19;5004168;28;19921;-82
2022/03/19 01:37:55;;;;;;;;;;;4.40;99.90;;;3.57;100.00;99295.28;4989602;28;20454;-82
2022/03/19 01:40:21;;;;;;;;;;;4.30;99.90;;;3.60;100.00;99292.72;5020117;28;19917;-82
2022/03/19 01:42:49;;;;;;;;;;;4.30;99.90;;;3.68;100.00;99299.00;5021930;28;19944;-83
2022/03/19 01:45:18;;;;;;;;;;;4.30;99.90;;;3.60;100.00;99287.50;5026182;28;19916;-82
2022/03/19 01:47:44;;;;;;;;;;;4.30;99.90;;;3.63;100.00;99287.59;5045851;28;19905;-82
2022/03/19 01:50:11;;;;;;;;;;;4.30;99.90;;;3.49;100.00;99276.84;5003471;28;19931;-82
2022/03/19 01:52:37;;;;;;;;;;;4.30;99.90;;;3.57;100.00;99285.72;5035702;28;19923;-82
2022/03/19 01:55:04;;;;;;;;;;;4.30;99.90;;;3.60;100.00;99287.50;5013901;28;19917;-82
2022/03/19 01:57:33;;;;;;;;;;;4.30;99.90;;;3.74;100.00;99280.84;5027418;28;19944;-82
2022/03/19 01:59:59;;;;;;;;;;;4.30;99.90;;;3.69;100.00;99287.69;5016169;28;19960;-83
2022/03/19 02:02:26;;;;;;;;;;;4.40;99.90;;;3.67;100.00;99283.31;5025682;28;19921;-82
2022/03/19 02:04:53;;;;;;;;;;;4.30;99.90;;;3.56;100.00;99275.25;5016256;28;19917;-82
2022/03/19 02:07:18;;;;;;;;;;;4.30;99.90;;;3.50;100.00;99260.38;5014958;28;19921;-82
2022/03/19 02:09:44;;;;;;;;;;;4.30;99.90;;;3.59;100.00;99263.16;5037752;28;19909;-82
2022/03/19 02:12:10;;;;;;;;;;;4.30;99.90;;;3.60;100.00;99269.25;5024818;28;20429;-83
2022/03/19 02:14:37;;;;;;;;;;;4.40;99.90;;;3.72;100.00;99276.47;5019750;28;19926;-83
2022/03/19 02:17:04;;;;;;;;;;;4.40;99.90;;;3.75;100.00;99277.41;5025593;28;19927;-83
2022/03/19 02:19:30;;;;;;;;;;;4.40;99.90;;;3.74;100.00;99270.41;5024653;28;19920;-82
2022/03/19 02:21:56;;;;;;;;;;;4.40;99.90;;;3.71;100.00;99290.34;5012669;28;19916;-82
2022/03/19 02:27:06;;;;;;;;;;;4.40;99.90;;;3.83;100.00;99283.66;5016535;28;19970;-82
2022/03/19 02:29:32;;;;;;;;;;;4.40;99.90;;;3.84;100.00;99279.31;5014576;28;20030;-82
2022/03/19 02:32:00;;;;;;;;;;;4.50;99.90;;;3.90;100.00;99278.56;5014317;28;19986;-82
2022/03/19 02:34:27;;;;;;;;;;;4.50;99.90;;;3.98;100.00;99274.34;5031075;28;20023;-82
2022/03/19 02:36:53;;;;;;;;;;;4.50;99.90;;;3.83;100.00;99267.97;5011957;28;19925;-82
2022/03/19 02:39:28;;;;;;;;;;;4.50;99.90;;;3.80;100.00;99261.81;5033003;28;20027;-82
2022/03/19 02:41:55;;;;;;;;;;;4.50;99.90;;;3.78;100.00;99253.94;5016166;28;20194;-82
2022/03/19 02:44:21;;;;;;;;;;;4.50;99.90;;;3.84;100.00;99261.06;5015627;28;20374;-82
2022/03/19 02:46:49;;;;;;;;;;;4.50;99.90;;;3.88;100.00;99270.69;5013493;28;20311;-82
2022/03/19 02:49:16;;;;;;;;;;;4.50;99.90;;;3.88;100.00;99269.81;5011538;28;19971;-82
2022/03/19 02:51:43;;;;;;;;;;;4.50;99.90;;;3.79;100.00;99252.25;5013711;28;19917;-82
2022/03/19 02:54:12;;;;;;;;;;;4.50;99.90;;;3.83;100.00;99264.50;5018660;23;20019;-46
2022/03/19 02:56:40;;;;;;;;;;;4.50;99.90;;;3.86;100.00;99266.28;5013009;28;19936;-45
2022/03/19 02:59:06;;;;;;;;;;;4.40;99.90;;;3.80;100.00;99262.72;5002751;28;19916;-46
2022/03/19 03:01:32;;;;;;;;;;;4.40;99.90;;;3.87;100.00;99262.84;5020146;28;20459;-47
2022/03/19 03:03:58;;;;;;;;;;;4.40;99.90;;;3.74;100.00;99259.97;5017518;28;19917;-45
2022/03/19 03:06:24;;;;;;;;;;;4.40;99.90;;;3.65;100.00;99259.78;5015377;28;20016;-47
2022/03/19 03:08:50;;;;;;;;;;;4.30;99.90;;;3.58;100.00;99253.56;5017012;28;19917;-46
2022/03/19 03:11:15;;;;;;;;;;;4.30;99.90;;;3.55;100.00;99250.00;5017630;28;19936;-46
2022/03/19 03:13:41;;;;;;;;;;;4.20;99.90;;;3.47;100.00;99252.47;5018382;28;21676;-46
2022/03/19 03:16:07;;;;;;;;;;;4.10;99.90;;;3.46;100.00;99261.13;5015343;28;20362;-46
2022/03/19 03:18:32;;;;;;;;;;;4.10;99.90;;;3.41;100.00;99252.31;5011981;28;19957;-44
2022/03/19 03:20:59;;;;;;;;;;;4.10;99.90;;;3.42;100.00;99259.31;4996988;28;20167;-47
2022/03/19 03:23:26;;;;;;;;;;;4.10;99.90;;;3.34;100.00;99258.25;5016050;28;20159;-47
2022/03/19 03:25:52;;;;;;;;;;;4.00;99.90;;;3.34;100.00;99258.25;4999121;28;19913;-47
2022/03/19 03:28:18;;;;;;;;;;;4.00;99.90;;;3.34;100.00;99253.03;5018055;28;19921;-46
2022/03/19 03:30:43;;;;;;;;;;;4.00;99.90;;;3.32;100.00;99245.19;5017151;28;19960;-47
2022/03/19 03:33:09;;;;;;;;;;;3.90;99.90;;;3.42;100.00;99259.31;5017119;28;20027;-46
2022/03/19 03:35:35;;;;;;;;;;;4.00;99.90;;;3.31;100.00;99245.16;5017419;28;19929;-47
2022/03/19 03:38:00;;;;;;;;;;;4.00;99.90;;;3.32;100.00;99242.59;4997529;28;19921;-45
2022/03/19 03:40:26;;;;;;;;;;;4.00;99.90;;;3.37;100.00;99250.50;5016382;28;19967;-46
2022/03/19 03:42:52;;;;;;;;;;;4.00;99.90;;;3.47;100.00;99247.25;4998729;28;20366;-47
2022/03/19 03:45:18;;;;;;;;;;;4.00;99.90;;;3.50;100.00;99243.81;5016975;28;19917;-46
2022/03/19 03:47:44;;;;;;;;;;;4.00;99.90;;;3.32;100.00;99237.38;5013817;28;19944;-46
2022/03/19 03:50:09;;;;;;;;;;;4.00;99.90;;;3.38;100.00;99241.84;5017354;28;20516;-46
2022/03/19 03:52:35;;;;;;;;;;;4.00;99.90;;;3.28;100.00;99239.88;5019074;28;19951;-46
2022/03/19 03:55:03;;;;;;;;;;;3.90;99.90;;;3.20;100.00;99243.19;5016244;28;19920;-46
2022/03/19 03:57:29;;;;;;;;;;;3.90;99.90;;;3.10;100.00;99245.56;4999358;28;19948;-47
2022/03/19 03:59:54;;;;;;;;;;;3.80;99.90;;;3.06;100.00;99239.41;5016442;28;20421;-43
2022/03/19 04:02:20;;;;;;;;;;;3.70;99.90;;;3.11;100.00;99239.50;5018097;28;19927;-45
2022/03/19 04:04:45;;;;;;;;;;;3.70;99.90;;;3.05;100.00;99241.13;5011329;28;19928;-47
2022/03/19 04:07:11;;;;;;;;;;;3.70;99.90;;;3.02;100.00;99243.66;5016444;28;19941;-47
2022/03/19 04:09:37;;;;;;;;;;;3.70;99.90;;;2.94;100.00;99234.78;5018074;28;20386;-46
2022/03/19 04:12:03;;;;;;;;;;;3.70;99.90;;;3.02;100.00;99241.06;5016115;28;19920;-47
2022/03/19 04:14:31;;;;;;;;;;;3.70;99.90;;;3.03;100.00;99226.28;5014971;28;19921;-47
2022/03/19 04:16:57;;;;;;;;;;;3.60;99.90;;;3.00;100.00;99232.31;5014419;28;20409;-46
2022/03/19 04:19:23;;;;;;;;;;;3.60;99.90;;;2.97;100.00;99227.03;5018356;28;19922;-47
2022/03/19 04:21:49;;;;;;;;;;;3.60;99.90;;;3.04;100.00;99234.16;5014105;28;19939;-45
2022/03/19 04:24:14;;;;;;;;;;;3.70;99.90;;;3.08;100.00;99232.50;5019153;28;19948;-47
2022/03/19 04:26:40;;;;;;;;;;;3.70;99.90;;;2.94;100.00;99224.34;5014057;28;19995;-46
2022/03/19 04:29:05;;;;;;;;;;;3.60;99.90;;;2.89;100.00;99226.00;5018058;28;20015;-47
2022/03/19 04:31:31;;;;;;;;;;;3.60;99.90;;;2.89;100.00;99223.38;5013816;28;20293;-46
2022/03/19 04:33:57;;;;;;;;;;;3.60;99.90;;;2.89;100.00;99231.22;5018752;28;19948;-46
2022/03/19 04:36:32;;;;;;;;;;;3.50;99.90;;;2.84;100.00;99228.47;5013292;28;20067;-47
2022/03/19 04:38:59;;;;;;;;;;;3.50;99.90;;;2.92;100.00;99228.66;5018339;28;20316;-47
2022/03/19 04:41:24;;;;;;;;;;;3.50;99.90;;;2.83;100.00;99223.22;5013609;28;20137;-46
2022/03/19 04:43:50;;;;;;;;;;;3.50;99.90;;;2.82;100.00;99226.69;5017162;28;20417;-46
2022/03/19 04:46:16;;;;;;;;;;;3.50;99.90;;;2.84;100.00;99225.88;5015497;28;19921;-47
2022/03/19 04:48:45;;;;;;;;;;;3.50;99.90;;;2.79;100.00;99218.81;5017224;28;19928;-46
2022/03/19 04:51:13;;;;;;;;;;;3.50;99.90;;;2.89;100.00;99217.28;5017113;28;19999;-47
2022/03/19 04:53:40;;;;;;;;;;;3.50;99.90;;;2.78;100.00;99225.75;5015482;28;19921;-46
2022/03/19 04:56:08;;;;;;;;;;;3.50;99.90;;;2.63;100.00;99221.03;4997984;28;19920;-42
2022/03/19 04:58:34;;;;;;;;;;;3.40;99.90;;;2.53;100.00;99225.97;5020714;28;19925;-47
2022/03/19 05:01:00;;;;;;;;;;;3.30;99.90;;;2.40;100.00;99230.00;5002771;28;19971;-46
2022/03/19 05:03:26;;;;;;;;;;;3.20;99.90;;;2.42;100.00;99224.03;5005849;28;19916;-47
2022/03/19 05:05:52;;;;;;;;;;;3.20;99.90;;;2.32;100.00;99219.41;5020717;28;19917;-47
2022/03/19 05:08:18;;;;;;;;;;;3.10;99.90;;;2.15;100.00;99218.97;5017625;28;19960;-47
2022/03/19 05:13:28;;;;;;;;;;;2.90;99.90;;;2.04;100.00;99221.28;5022526;28;20424;-46
2022/03/19 05:15:54;;;;;;;;;;;2.80;99.90;;;1.67;100.00;99170.91;5021485;28;19916;-44
2022/03/19 05:18:20;;;;;;;;;;;2.80;99.90;;;1.86;100.00;99216.47;5020408;28;19917;-46
2022/03/19 05:20:46;;;;;;;;;;;2.70;99.90;;;1.75;100.00;99209.25;5019094;28;20341;-44
2022/03/19 05:23:11;;;;;;;;;;;2.60;99.90;;;1.69;100.00;99217.78;5018485;28;19967;-44
2022/03/19 05:25:38;;;;;;;;;;;2.50;99.90;;;1.61;100.00;99207.13;5034929;23;19929;-37
2022/03/19 05:28:04;;;;;;;;;;;2.40;99.90;;;1.55;100.00;99211.31;5015455;28;19963;-34
2022/03/19 05:30:31;;;;;;;;;;;2.40;99.90;;;1.44;100.00;99208.41;5021415;28;20011;-35
2022/03/19 05:32:56;;;;;;;;;;;2.30;99.90;;;1.39;100.00;99212.56;5020548;28;19917;-34
2022/03/19 05:35:22;;;;;;;;;;;2.20;99.90;;;1.34;100.00;99202.91;5007918;28;20325;-35
2022/03/19 05:37:48;;;;;;;;;;;2.20;99.90;;;1.37;100.00;99215.13;4997369;28;20047;-36
2022/03/19 05:40:14;;;;;;;;;;;2.20;99.90;;;1.38;100.00;99208.22;4998627;28;19921;-36
2022/03/19 05:42:40;;;;;;;;;;;2.20;99.90;;;1.37;100.00;99199.53;5000594;28;20399;-39
2022/03/19 05:45:06;;;;;;;;;;;2.20;99.90;;;1.37;100.00;99199.53;5000414;28;20007;-34
2022/03/19 05:47:31;;;;;;;;;;;2.20;99.90;;;1.39;100.00;99207.38;4997631;28;19921;-39
2022/03/19 05:49:57;;;;;;;;;;;2.20;99.90;;;1.40;100.00;99198.72;4998685;28;20710;-38
2022/03/19 05:52:23;;;;;;;;;;;2.20;99.90;;;1.40;100.00;99206.53;4999784;28;19913;-35
2022/03/19 05:54:48;;;;;;;;;;;2.30;99.90;;;1.45;100.00;99203.22;4995823;28;19922;-36
2022/03/19 05:57:14;;;;;;;;;;;2.30;99.90;;;1.45;100.00;99199.75;4998603;28;20128;-37
2022/03/19 05:59:40;;;;;;;;;;;2.30;99.90;;;1.53;100.00;99200.84;4996584;28;19968;-37
2022/03/19 06:02:08;;;;;;;;;;;2.30;99.90;;;1.57;100.00;99210.50;5005929;28;19921;-37
2022/03/19 06:04:34;;;;;;;;;;;2.40;99.90;;;1.62;100.00;99208.03;5001626;28;19917;-37
2022/03/19 06:07:00;;;;;;;;;;;2.50;99.90;;;1.71;100.00;99206.53;4998205;28;20056;-37
2022/03/19 06:09:25;;;;;;;;;;;2.50;99.90;;;1.79;100.00;99204.16;4998020;28;19914;-38
2022/03/19 06:11:51;;;;;;;;;;;2.60;99.90;;;1.86;100.00;99202.59;4999983;28;20353;-35
2022/03/19 06:14:16;;;;;;;;;;;2.70;99.90;;;1.91;100.00;99207.09;4999236;28;20457;-35
2022/03/19 06:16:42;;;;;;;;;;;2.70;99.90;;;1.93;100.00;99207.13;4997545;28;19988;-33
2022/03/19 06:19:08;;;;;;;;;;;2.80;99.90;;;2.09;100.00;99211.88;4998417;28;19975;-43
2022/03/19 06:21:34;;;;;;;;;;;2.80;99.90;;;2.00;100.00;99203.84;4993421;28;19996;-38
2022/03/19 06:23:59;;;;;;;;;;;2.90;99.90;;;2.04;100.00;99205.69;4995853;28;19921;-39
2022/03/19 06:26:25;;;;;;;;;;;2.90;99.90;;;2.00;100.00;99209.03;4997769;28;20367;-34
2022/03/19 06:28:51;;;;;;;;;;;2.90;99.90;;;2.05;100.00;99207.44;4997215;28;19925;-37
2022/03/19 06:31:17;;;;;;;;;;;2.90;99.90;;;2.02;100.00;99203.88;4998552;28;19914;-37
2022/03/19 06:33:43;;;;;;;;;;;2.90;99.90;;;2.03;100.00;99210.88;4998765;28;19917;-37
2022/03/19 06:38:53;;;;;;;;;;;3.00;99.90;;;2.12;100.00;99210.19;5002599;28;20052;-36
2022/03/19 06:41:19;;;;;;;;;;;3.00;99.90;;;2.19;100.00;99206.91;4999604;28;20020;-35
2022/03/19 06:43:44;;;;;;;;;;;3.00;99.90;;;2.21;100.00;99205.25;4997613;28;19914;-34
2022/03/19 06:46:10;;;;;;;;;;;3.10;99.90;;;2.34;100.00;99211.66;4998257;28;19976;-37
2022/03/19 06:48:36;;;;;;;;;;;3.20;99.90;;;2.45;100.00;99203.22;4998459;28;19976;-36
2022/03/19 06:51:01;;;;;;;;;;;3.30;99.90;;;2.54;100.00;99204.31;5001200;28;20560;-36
2022/03/19 06:53:27;;;;;;;;;;;3.30;99.90;;;2.63;100.00;99207.13;5002633;28;19914;-37
2022/03/19 06:55:53;;;;;;;;;;;3.40;99.90;;;2.65;100.00;99203.72;4998074;28;19921;-36
2022/03/19 06:58:20;;;;;;;;;;;3.50;99.90;;;2.77;100.00;99210.06;5001675;28;19925;-37
2022/03/19 07:00:46;;;;;;;;;;;3.50;99.90;;;2.89;100.00;99209.47;4999152;28;19928;-38
2022/03/19 07:03:12;;;;;;;;;;;3.60;99.90;;;3.02;100.00;99208.91;5000553;28;19913;-36
2022/03/19 07:05:38;;;;;;;;;;;3.80;99.90;;;3.33;100.00;99212.16;4996881;28;19921;-34
2022/03/19 07:08:08;;;;;;;;;;;3.90;99.90;;;3.37;100.00;99203.56;4996040;28;20474;-36
2022/03/19 07:10:34;;;;;;;;;;;4.10;99.90;;;3.63;97.26;99204.09;4997449;28;19961;-37
2022/03/19 07:13:00;;;;;;;;;;;4.30;99.90;;;3.76;95.64;99197.38;4998183;28;20284;-36
2022/03/19 07:15:30;;;;;;;;;;;4.40;99.90;;;3.87;93.45;99200.19;4996055;28;20713;-38
2022/03/19 07:17:56;;;;;;;;;;;4.50;99.90;;;4.03;91.22;99196.13;4997301;28;19921;-38
2022/03/19 07:20:23;;;;;;;;;;;4.70;99.90;;;4.19;90.75;99201.63;4999664;28;19959;-36
2022/03/19 07:22:59;;;;;;;;;;;4.80;99.90;;;4.19;90.37;99198.16;4994543;28;19976;-36
2022/03/19 07:25:27;;;;;;;;;;;4.90;99.90;;;4.35;90.80;99194.94;4997942;28;19964;-35
2022/03/19 07:27:54;;;;;;;;;;;5.00;99.90;;;4.42;88.57;99197.69;4996464;28;19921;-36
2022/03/19 07:30:20;;;;;;;;;;;5.10;99.90;;;4.49;86.46;99199.53;5000109;28;19924;-36
2022/03/19 07:32:46;;;;;;;;;;;5.20;99.90;;;4.67;83.64;99191.09;4997650;28;19922;-36
2022/03/19 07:35:15;;;;;;;;;;;5.30;99.90;;;4.59;86.06;99173.56;4993601;28;19921;-36
2022/03/19 07:37:42;;;;;;;;;;;5.30;99.90;;;4.78;85.78;99184.28;4981706;28;19976;-35
2022/03/19 07:40:10;;;;;;;;;;;5.40;99.90;;;4.81;84.36;99186.06;4998420;28;20425;-35
2022/03/19 07:42:35;;;;;;;;;;;5.50;99.90;;;4.84;83.31;99188.72;4995550;28;19928;-36
2022/03/19 07:45:04;;;;;;;;;;;5.60;99.90;;;4.86;82.48;99190.50;4980759;28;20584;-40
2022/03/19 07:47:31;;;;;;;;;;;5.60;99.90;;;5.02;80.40;99186.38;4998006;28;19924;-38
2022/03/19 07:49:56;;;;;;;;;;;5.70;99.90;;;5.18;79.85;99183.97;4980609;28;20132;-34
2022/03/19 07:52:22;;;;;;;;;;;5.80;99.90;;;5.24;77.87;99177.09;4997296;28;19913;-36
2022/03/19 07:54:48;;;;;;;;;;;5.90;99.90;;;5.24;78.62;99178.81;4995785;28;20294;-34
2022/03/19 07:57:13;;;;;;;;;;;5.90;99.90;;;5.31;79.80;99178.94;4994498;28;19929;-37
2022/03/19 07:59:40;;;;;;;;;;;6.00;99.90;;;5.47;76.20;99177.38;4994258;28;20019;-36
2022/03/19 08:02:05;;;;;;;;;;;6.10;99.90;;;5.63;74.33;99181.03;5004959;28;19920;-37
2022/03/19 08:04:31;;;;;;;;;;;6.20;99.90;;;5.65;73.91;99184.56;5000549;28;19918;-37
2022/03/19 08:06:56;;;;;;;;;;;6.20;99.90;;;5.69;72.36;99181.13;4999589;28;20241;-35
2022/03/19 08:09:23;;;;;;;;;;;6.30;99.90;;;5.61;70.37;99174.91;4998340;28;19913;-35
2022/03/19 08:11:50;;;;;;;;;;;6.40;99.90;;;5.74;70.31;99189.00;4999456;28;20299;-34
2022/03/19 08:14:16;;;;;;;;;;;6.40;99.90;;;5.81;68.13;99182.09;4998527;28;20622;-36
2022/03/19 08:16:42;;;;;;;;;;;6.50;99.90;;;5.85;68.12;99184.78;4987797;28;19922;-36
2022/03/19 08:19:10;;;;;;;;;;;6.50;99.90;;;6.01;66.55;99180.63;4997990;28;20378;-36
2022/03/19 08:21:37;;;;;;;;;;;6.60;99.90;;;6.09;64.72;99183.31;4995991;28;19933;-36
2022/03/19 08:24:02;;;;;;;;;;;6.70;99.90;;;6.11;65.53;99169.34;4998523;28;20310;-34
2022/03/19 08:26:28;;;;;;;;;;;6.80;99.90;;;6.09;65.49;99178.06;4997776;28;19917;-36
2022/03/19 08:28:53;;;;;;;;;;;6.80;99.90;;;6.30;63.06;99162.53;4995416;28;19921;-37
2022/03/19 08:31:19;;;;;;;;;;;6.90;99.90;;;6.33;62.84;99160.81;4997058;28;20350;-36
2022/03/19 08:33:45;;;;;;;;;;;7.00;99.90;;;6.59;60.95;99161.88;4998725;28;20012;-37
2022/03/19 08:36:11;;;;;;;;;;;7.10;99.90;;;6.59;61.01;99161.88;5000461;28;19949;-37
2022/03/19 08:41:21;;;;;;;;;;;7.20;99.90;;;6.67;60.02;99146.19;5003653;28;20456;-34
2022/03/19 08:43:46;;;;;;;;;;;7.30;99.90;;;6.66;61.20;99155.81;5002187;28;19922;-34
2022/03/19 08:46:12;;;;;;;;;;;7.30;99.90;;;6.87;60.54;99149.84;5003772;28;19913;-40
2022/03/19 08:48:38;;;;;;;;;;;7.40;99.90;;;7.00;59.79;99149.88;5002244;28;20083;-35
2022/03/19 08:53:48;;;;;;;;;;;7.60;99.90;;;7.13;56.74;99148.22;5004916;28;20354;-34
2022/03/19 08:56:14;;;;;;;;;;;7.70;99.90;;;7.31;57.31;99150.91;5002227;28;20387;-34
2022/03/19 08:58:40;;;;;;;;;;;7.80;99.90;;;7.25;57.25;99149.16;5012141;28;19928;-34
2022/03/19 09:01:05;;;;;;;;;;;7.80;99.90;;;7.32;57.76;99149.16;5007250;28;19913;-34
2022/03/19 09:03:32;;;;;;;;;;;7.90;99.90;;;7.44;55.01;99143.97;5001480;28;19940;-37
2022/03/19 09:05:58;;;;;;;;;;;8.00;99.90;;;7.45;54.73;99133.47;5001584;28;19920;-37
2022/03/19 09:08:24;;;;;;;;;;;8.10;99.90;;;7.49;54.57;99130.88;5002964;28;20200;-35
2022/03/19 09:10:49;;;;;;;;;;;8.10;99.90;;;7.54;53.67;99131.75;5001195;28;20543;-35
2022/03/19 09:13:15;;;;;;;;;;;8.10;99.90;;;7.48;53.99;99131.72;5003723;28;19921;-38
2022/03/19 09:15:41;;;;;;;;;;;8.10;99.90;;;7.55;53.81;99120.38;5001359;28;19972;-36
2022/03/19 09:18:06;;;;;;;;;;;8.10;99.90;;;7.51;54.76;99121.25;5002856;28;20004;-35
2022/03/19 09:20:32;;;;;;;;;;;8.10;99.90;;;7.63;54.89;99126.53;5000585;28;20371;-33
2022/03/19 09:22:58;;;;;;;;;;;8.20;99.90;;;7.60;54.15;99111.63;5000145;28;20341;-36
2022/03/19 09:25:23;;;;;;;;;;;8.30;99.90;;;7.77;54.22;99118.66;5002748;28;20394;-37
2022/03/19 09:27:49;;;;;;;;;;;8.30;99.90;;;7.72;54.36;99115.19;5000738;28;19918;-37
2022/03/19 09:30:15;;;;;;;;;;;8.30;99.90;;;7.94;52.96;99116.06;5003290;28;20375;-34
2022/03/19 09:32:41;;;;;;;;;;;8.40;99.70;;;7.95;53.15;99113.44;5002733;28;19935;-35
2022/03/19 09:35:08;;;;;;;;;;;8.50;99.70;;;8.02;52.99;99098.53;5003899;28;20004;-37
2022/03/19 09:37:34;;;;;;;;;;;8.50;99.50;;;8.07;53.69;99109.06;5001850;28;19925;-44
2022/03/19 09:39:59;;;;;;;;;;;8.60;99.90;;;8.13;51.59;99104.72;5002721;28;19920;-38
2022/03/19 09:42:27;;;;;;;;;;;8.70;98.60;;;8.18;53.10;99102.06;4999656;28;20290;-35
2022/03/19 09:44:53;;;;;;;;;;;8.70;99.00;;;8.23;52.79;99101.16;5001311;28;19917;-34
2022/03/19 09:47:19;;;;;;;;;;;8.80;99.20;;;8.27;51.77;99095.94;5000876;28;19940;-35
2022/03/19 09:49:44;;;;;;;;;;;8.80;98.50;;;8.31;51.87;99084.53;4999705;28;20402;-38
2022/03/19 09:52:13;;;;;;;;;;;8.80;98.30;;;8.46;51.30;99079.28;5000452;28;19918;-35
2022/03/19 09:54:39;;;;;;;;;;;9.00;98.00;;;8.51;51.61;99081.94;5001500;28;19976;-35
2022/03/19 09:57:05;;;;;;;;;;;9.00;98.10;;;8.35;50.79;99047.72;5002251;28;19924;-36
2022/03/19 09:59:34;;;;;;;;;;;9.00;97.30;;;8.40;49.62;99061.75;4999989;28;19909;-37
2022/03/19 10:02:04;;;;;;;;;;;9.10;96.70;;;8.52;50.40;99057.38;5000809;28;20288;-38
2022/03/19 10:04:31;;;;;;;;;;;9.10;97.00;;;8.56;51.47;99053.84;5007572;28;20370;-37
2022/03/19 10:09:46;;;;;;;;;;;9.20;97.20;;;8.69;50.88;99037.16;4989770;28;20646;-39
2022/03/19 10:12:23;;;;;;;;;;;9.20;96.80;;;8.70;51.20;99030.13;4997344;28;20420;-35
2022/03/19 10:14:54;;;;;;;;;;;9.30;96.90;;;8.85;52.74;99030.09;4994455;28;20389;-36
2022/03/19 10:17:30;;;;;;;;;;;9.30;98.00;;;8.85;52.75;99030.09;4991790;28;19921;-34
2022/03/19 10:20:09;;;;;;;;;;;9.40;98.00;;;8.97;52.06;99023.88;4994749;28;19928;-35
2022/03/19 10:22:39;;;;;;;;;;;9.50;97.60;;;9.03;52.95;99020.38;4989918;28;19960;-37
2022/03/19 10:25:09;;;;;;;;;;;9.60;98.00;;;8.89;52.14;99000.25;4999784;28;19966;-37
2022/03/19 10:27:37;;;;;;;;;;;9.60;97.50;;;9.04;52.62;99017.72;4998235;28;20383;-35
2022/03/19 10:30:18;;;;;;;;;;;9.60;97.80;;;9.06;51.56;99022.97;5000809;28;19933;-35
2022/03/19 10:32:48;;;;;;;;;;;9.60;97.30;;;9.08;52.60;99015.94;4997726;28;19913;-37
2022/03/19 10:35:38;;;;;;;;;;;9.60;97.40;;;9.15;53.23;99013.28;4995961;28;20343;-35
2022/03/19 10:38:21;;;;;;;;;;;9.70;97.90;;;9.13;52.31;99007.16;4999494;28;21763;-35
2022/03/19 10:40:48;;;;;;;;;;;9.70;97.40;;;9.24;52.47;98999.19;4999818;28;19913;-34
2022/03/19 10:43:17;;;;;;;;;;;9.80;97.60;;;9.20;53.68;98999.22;4995769;28;20314;-36
2022/03/19 10:45:51;;;;;;;;;;;9.80;98.10;;;9.25;51.33;98998.31;4990464;28;20378;-37
2022/03/19 10:48:24;;;;;;;;;;;9.80;96.70;;;9.50;52.34;98983.22;4995930;28;20272;-35
2022/03/19 10:50:51;;;;;;;;;;;10.00;97.50;;;9.52;52.08;98983.19;4998994;28;20326;-37
2022/03/19 10:53:17;;;;;;;;;;;10.00;97.10;;;9.52;52.81;98985.84;5004934;28;19924;-34
2022/03/19 10:55:43;;;;;;;;;;;10.10;97.40;;;9.49;53.37;98983.22;4996339;28;20687;-35
2022/03/19 10:58:10;;;;;;;;;;;10.10;97.40;;;9.54;53.56;98968.25;5003216;28;19960;-36
2022/03/19 11:00:36;;;;;;;;;;;10.20;97.90;;;9.74;53.10;98979.53;5002970;28;19917;-37
2022/03/19 11:03:09;;;;;;;;;;;10.30;97.70;;;9.77;52.53;98959.31;4998261;28;20645;-37
2022/03/19 11:05:34;;;;;;;;;;;10.30;97.20;;;9.83;52.04;98952.19;4977988;28;19913;-37
2022/03/19 11:08:03;;;;;;;;;;;10.40;97.30;;;9.89;51.95;98959.19;4979126;28;19963;-34
2022/03/19 11:10:29;;;;;;;;;;;10.40;96.90;;;9.92;50.70;98948.59;4978260;28;19925;-36
2022/03/19 11:12:56;;;;;;;;;;;10.40;96.20;;;9.78;51.73;98942.59;4980527;28;20271;-35
2022/03/19 11:15:22;;;;;;;;;;;10.40;96.70;;;9.83;50.41;98936.38;4997841;28;19921;-38
2022/03/19 11:17:50;;;;;;;;;;;10.40;95.70;;;10.06;48.23;98936.16;4977695;28;19956;-35
2022/03/19 11:20:16;;;;;;;;;;;10.60;94.30;;;10.28;48.65;98941.19;4988124;28;19928;-34
2022/03/19 11:22:47;;;;;;;;;;;10.90;94.60;;;10.44;47.03;98934.88;4994969;28;19913;-38
2022/03/19 11:27:50;;;;;;;;;;;11.10;93.30;;;10.76;46.43;98924.84;5010166;28;19932;-36
2022/03/19 11:30:16;;;;;;;;;;;11.30;92.60;;;10.93;44.72;98920.22;4997384;28;19929;-38
2022/03/19 11:32:59;;;;;;;;;;;11.40;91.40;;;10.78;43.97;98905.44;5015024;28;19951;-41
2022/03/19 11:35:25;;;;;;;;;;;11.50;90.90;;;10.58;44.66;98918.91;5008772;28;19920;-40
2022/03/19 11:38:06;;;;;;;;;;;11.30;90.60;;;10.48;43.86;98912.88;4996427;28;20387;-38
2022/03/19 11:40:36;;;;;;;;;;;11.10;89.50;;;10.34;43.92;98901.63;4998236;28;20027;-40
2022/03/19 11:43:07;;;;;;;;;;;11.00;89.30;;;10.19;43.94;98899.97;4997470;28;20008;-42